Time;durP1;ratioP1;P1;durP2;ratioP2;P2;SDS_P1;SDS_P2;PMS_P1;PMS_P2;Temp;Humidity;BMP_temperature;BMP_pressure;BME280_temperature;BME280_humidity;BME280_pressure;Samples;Min_cycle;Max_cycle;Signal;HPM_P1;HPM_P2
2021/10/30 00:00:13;;;;;;;37.60;17.17;;;4.00;99.90;;;;;;4988787;28;20193;-60
2021/10/30 00:02:39;;;;;;;57.63;16.53;;;4.00;99.90;;;;;;4989386;28;20189;-60
2021/10/30 00:05:08;;;;;;;36.03;16.60;;;3.90;99.90;;;;;;4990852;28;20410;-60
2021/10/30 00:07:34;;;;;;;37.90;16.90;;;3.90;99.90;;;;;;4991300;28;20467;-60
2021/10/30 00:10:00;;;;;;;42.10;18.17;;;3.80;99.90;;;;;;4989388;28;20464;-60
2021/10/30 00:12:25;;;;;;;43.10;19.87;;;3.70;99.90;;;;;;4977102;28;20408;-57
2021/10/30 00:14:51;;;;;;;36.80;18.33;;;3.70;99.90;;;;;;4969710;28;20268;-57
2021/10/30 00:17:17;;;;;;;36.43;15.93;;;3.70;99.90;;;;;;4975263;28;20186;-58
2021/10/30 00:19:43;;;;;;;46.27;14.57;;;3.60;99.90;;;;;;4968820;28;20197;-58
2021/10/30 00:22:08;;;;;;;49.80;16.70;;;3.50;99.90;;;;;;4979030;28;20647;-58
2021/10/30 00:24:35;;;;;;;58.93;15.30;;;3.50;99.90;;;;;;4975092;28;20182;-58
2021/10/30 00:27:02;;;;;;;35.93;15.40;;;3.40;99.90;;;;;;4957668;28;20265;-58
2021/10/30 00:29:28;;;;;;;45.07;14.73;;;3.40;99.90;;;;;;4958513;28;20565;-57
2021/10/30 00:31:54;;;;;;;56.73;15.07;;;3.40;99.90;;;;;;4971911;28;20914;-58
2021/10/30 00:34:20;;;;;;;37.30;15.00;;;3.40;99.90;;;;;;4972305;28;20440;-57
2021/10/30 00:36:46;;;;;;;96.20;16.80;;;3.30;99.90;;;;;;4971767;28;20433;-57
2021/10/30 00:39:11;;;;;;;36.23;16.03;;;3.30;99.90;;;;;;4968313;28;20221;-57
2021/10/30 00:41:37;;;;;;;75.40;16.87;;;3.30;99.90;;;;;;4970940;28;20173;-56
2021/10/30 00:44:12;;;;;;;34.03;14.13;;;3.30;99.90;;;;;;4962303;28;20174;-58
2021/10/30 00:46:42;;;;;;;47.10;15.57;;;3.30;99.90;;;;;;4967436;28;20256;-57
2021/10/30 00:49:13;;;;;;;88.87;16.07;;;3.30;99.90;;;;;;4970883;28;20433;-57
2021/10/30 00:51:41;;;;;;;39.90;14.33;;;3.30;99.90;;;;;;4970696;28;20432;-55
2021/10/30 00:54:08;;;;;;;57.20;16.30;;;3.30;99.90;;;;;;4968642;28;20429;-56
2021/10/30 00:56:36;;;;;;;44.70;14.57;;;3.30;99.90;;;;;;4969410;28;20960;-58
2021/10/30 00:59:05;;;;;;;73.33;16.10;;;3.20;99.90;;;;;;4970375;28;20451;-58
2021/10/30 01:01:31;;;;;;;31.00;14.10;;;3.20;99.90;;;;;;4969269;28;21029;-58
2021/10/30 01:03:58;;;;;;;28.50;13.30;;;3.20;99.90;;;;;;4970483;28;20425;-59
2021/10/30 01:06:24;;;;;;;78.40;14.13;;;3.20;99.90;;;;;;4969516;28;20449;-58
2021/10/30 01:08:50;;;;;;;53.83;13.43;;;3.20;99.90;;;;;;4969646;28;20881;-58
2021/10/30 01:11:16;;;;;;;47.90;14.13;;;3.10;99.90;;;;;;4969493;28;20460;-58
2021/10/30 01:13:42;;;;;;;37.53;14.20;;;3.10;99.90;;;;;;4969891;28;20197;-58
2021/10/30 01:16:09;;;;;;;36.30;12.93;;;3.10;99.90;;;;;;4995307;28;20419;-58
2021/10/30 01:18:35;;;;;;;66.93;13.53;;;3.20;99.90;;;;;;4961229;28;20457;-58
2021/10/30 01:21:01;;;;;;;54.80;14.00;;;3.10;99.90;;;;;;4953372;28;20459;-58
2021/10/30 01:23:29;;;;;;;44.47;13.67;;;3.10;99.90;;;;;;4983394;28;20417;-58
2021/10/30 01:26:00;;;;;;;27.03;14.10;;;3.10;99.90;;;;;;4969106;28;20221;-58
2021/10/30 01:28:27;;;;;;;55.00;14.23;;;3.10;99.90;;;;;;4973107;28;20448;-58
2021/10/30 01:30:53;;;;;;;38.93;14.93;;;3.10;99.90;;;;;;4973853;28;20445;-57
2021/10/30 01:33:22;;;;;;;43.30;15.20;;;3.10;99.90;;;;;;4970080;28;20917;-58
2021/10/30 01:35:48;;;;;;;32.67;15.63;;;3.10;99.90;;;;;;4968177;28;20510;-55
2021/10/30 01:38:15;;;;;;;40.73;13.90;;;3.10;99.90;;;;;;4980503;28;20897;-58
2021/10/30 01:40:47;;;;;;;39.53;14.60;;;3.00;99.90;;;;;;5001329;28;20464;-57
2021/10/30 01:43:14;;;;;;;50.23;13.60;;;3.10;99.90;;;;;;4973851;28;20425;-58
2021/10/30 01:45:42;;;;;;;23.60;12.47;;;3.00;99.90;;;;;;4972225;28;20478;-56
2021/10/30 01:48:09;;;;;;;57.73;13.63;;;3.00;99.90;;;;;;4967990;28;20541;-58
2021/10/30 01:50:35;;;;;;;30.60;12.40;;;3.10;99.90;;;;;;4968307;28;20437;-57
2021/10/30 01:53:03;;;;;;;44.40;14.10;;;3.00;99.90;;;;;;4967334;28;20429;-58
2021/10/30 01:55:32;;;;;;;26.50;12.37;;;3.00;99.90;;;;;;4978920;28;20503;-57
2021/10/30 01:57:58;;;;;;;42.80;12.40;;;3.00;99.90;;;;;;5002819;28;20464;-58
2021/10/30 02:00:24;;;;;;;27.90;13.10;;;3.00;99.90;;;;;;4971990;28;20666;-58
2021/10/30 02:02:50;;;;;;;78.33;14.40;;;3.00;99.90;;;;;;4973580;28;20413;-58
2021/10/30 02:05:16;;;;;;;34.07;12.40;;;2.90;99.90;;;;;;4973187;28;20415;-58
2021/10/30 02:07:41;;;;;;;36.37;12.73;;;2.90;99.90;;;;;;4982094;28;20276;-58
2021/10/30 02:10:10;;;;;;;77.23;12.80;;;2.90;99.90;;;;;;4978372;28;20179;-58
2021/10/30 02:12:36;;;;;;;57.77;13.73;;;2.90;99.90;;;;;;4975183;28;20679;-58
2021/10/30 02:15:03;;;;;;;78.83;13.50;;;2.80;99.90;;;;;;4979546;28;20425;-58
2021/10/30 02:17:29;;;;;;;65.97;12.47;;;2.80;99.90;;;;;;4972757;28;20442;-58
2021/10/30 02:19:54;;;;;;;49.67;12.63;;;2.80;99.90;;;;;;5001232;28;20474;-59
2021/10/30 02:22:20;;;;;;;23.17;11.00;;;2.80;99.90;;;;;;4982631;28;20181;-58
2021/10/30 02:24:45;;;;;;;35.30;11.60;;;2.70;99.90;;;;;;4982800;28;20237;-57
2021/10/30 02:27:11;;;;;;;59.70;11.07;;;2.70;99.90;;;;;;4977810;28;20180;-57
2021/10/30 02:29:37;;;;;;;58.23;12.53;;;2.70;99.90;;;;;;4979272;28;20213;-59
2021/10/30 02:32:04;;;;;;;63.87;13.30;;;2.70;99.90;;;;;;4971467;28;20453;-59
2021/10/30 02:34:29;;;;;;;31.53;11.80;;;2.60;99.90;;;;;;4968614;28;20190;-59
2021/10/30 02:36:56;;;;;;;41.17;11.93;;;2.50;99.90;;;;;;4969556;28;20447;-60
2021/10/30 02:39:22;;;;;;;28.80;12.50;;;2.50;99.90;;;;;;4971710;28;20582;-59
2021/10/30 02:41:47;;;;;;;38.50;12.97;;;2.50;99.90;;;;;;4967646;28;20440;-59
2021/10/30 02:44:13;;;;;;;56.20;12.73;;;2.50;99.90;;;;;;4963426;28;20553;-59
2021/10/30 02:46:39;;;;;;;23.00;12.30;;;2.40;99.90;;;;;;4989240;28;20196;-58
2021/10/30 02:49:05;;;;;;;36.40;12.93;;;2.40;99.90;;;;;;4980646;28;20582;-63
2021/10/30 02:51:31;;;;;;;33.87;11.73;;;2.40;99.90;;;;;;4967987;28;20465;-61
2021/10/30 02:53:56;;;;;;;30.63;12.93;;;2.40;99.90;;;;;;4965529;28;20193;-58
2021/10/30 02:56:22;;;;;;;71.03;12.97;;;2.30;99.90;;;;;;4968628;28;20193;-58
2021/10/30 02:58:48;;;;;;;52.97;13.30;;;2.30;99.90;;;;;;4970511;28;21025;-60
2021/10/30 03:01:14;;;;;;;27.60;13.07;;;2.30;99.90;;;;;;4971617;28;20178;-59
2021/10/30 03:03:40;;;;;;;44.67;13.00;;;2.30;99.90;;;;;;4971159;28;20183;-59
2021/10/30 03:06:07;;;;;;;48.00;12.93;;;2.30;99.90;;;;;;4985793;28;20172;-65
2021/10/30 03:08:32;;;;;;;93.10;15.20;;;2.30;99.90;;;;;;5000190;23;20229;-59
2021/10/30 03:10:58;;;;;;;39.93;13.30;;;2.30;99.90;;;;;;4976029;28;20830;-59
2021/10/30 03:13:24;;;;;;;26.20;13.20;;;2.30;99.90;;;;;;4976614;28;20282;-58
2021/10/30 03:15:49;;;;;;;19.97;12.07;;;2.20;99.90;;;;;;4976509;28;20266;-60
2021/10/30 03:18:15;;;;;;;27.07;13.30;;;2.20;99.90;;;;;;4976538;28;20205;-59
2021/10/30 03:20:41;;;;;;;21.90;12.27;;;2.20;99.90;;;;;;4971442;28;20189;-59
2021/10/30 03:23:07;;;;;;;32.73;10.90;;;2.20;99.90;;;;;;4975513;28;20446;-60
2021/10/30 03:25:34;;;;;;;23.53;10.27;;;2.20;99.90;;;;;;4988985;28;20169;-59
2021/10/30 03:28:00;;;;;;;26.73;10.83;;;2.20;99.90;;;;;;4983178;28;20414;-59
2021/10/30 03:30:26;;;;;;;35.97;12.10;;;2.20;99.90;;;;;;4973961;28;20446;-59
2021/10/30 03:32:51;;;;;;;21.27;11.20;;;2.20;99.90;;;;;;4982400;28;20184;-59
2021/10/30 03:35:17;;;;;;;55.43;12.00;;;2.20;99.90;;;;;;4971935;28;20825;-60
2021/10/30 03:37:43;;;;;;;61.83;12.77;;;2.20;99.90;;;;;;4975032;28;20796;-59
2021/10/30 03:40:09;;;;;;;42.43;11.87;;;2.20;99.90;;;;;;4975257;28;20619;-59
2021/10/30 03:42:35;;;;;;;44.63;11.23;;;2.20;99.90;;;;;;4973056;28;20181;-59
2021/10/30 03:45:04;;;;;;;14.90;9.57;;;2.10;99.90;;;;;;4973461;28;20435;-60
2021/10/30 03:47:29;;;;;;;19.70;10.13;;;2.10;99.90;;;;;;4975233;28;20509;-59
2021/10/30 03:49:55;;;;;;;20.63;10.27;;;2.10;99.90;;;;;;4990819;28;20908;-59
2021/10/30 03:52:21;;;;;;;32.63;12.43;;;2.10;99.90;;;;;;4976468;28;20211;-59
2021/10/30 03:54:47;;;;;;;40.93;11.00;;;2.10;99.90;;;;;;4971693;28;20489;-60
2021/10/30 03:57:12;;;;;;;32.50;10.60;;;2.10;99.90;;;;;;4972105;28;20194;-59
2021/10/30 03:59:38;;;;;;;44.27;11.37;;;2.10;99.90;;;;;;4976237;28;20205;-59
2021/10/30 04:02:04;;;;;;;32.10;10.60;;;2.00;99.90;;;;;;4966125;28;20239;-59
2021/10/30 04:04:31;;;;;;;40.20;11.70;;;2.00;99.90;;;;;;4960548;28;20625;-60
2021/10/30 04:06:57;;;;;;;33.10;11.83;;;2.00;99.90;;;;;;4965199;28;20426;-60
2021/10/30 04:09:24;;;;;;;35.50;13.33;;;2.00;99.90;;;;;;4962313;28;20471;-60
2021/10/30 04:11:53;;;;;;;28.43;10.83;;;2.00;99.90;;;;;;4964623;28;20478;-60
2021/10/30 04:14:19;;;;;;;51.57;10.73;;;2.00;99.90;;;;;;4965575;28;20461;-59
2021/10/30 04:16:46;;;;;;;35.97;11.50;;;2.00;99.90;;;;;;4962977;28;20489;-60
2021/10/30 04:19:13;;;;;;;26.40;10.93;;;1.90;99.90;;;;;;4964695;28;20471;-59
2021/10/30 04:21:40;;;;;;;13.73;10.07;;;1.90;99.90;;;;;;4963459;28;20451;-60
2021/10/30 04:24:06;;;;;;;40.83;11.57;;;1.90;99.90;;;;;;4979021;28;20427;-60
2021/10/30 04:26:32;;;;;;;88.13;12.63;;;1.90;99.90;;;;;;4965727;28;20429;-59
2021/10/30 04:28:58;;;;;;;43.27;11.40;;;1.80;99.90;;;;;;4966714;28;20301;-59
2021/10/30 04:31:26;;;;;;;53.27;11.97;;;1.80;99.90;;;;;;4964571;28;20489;-59
2021/10/30 04:33:55;;;;;;;25.97;10.30;;;1.80;99.90;;;;;;4962276;28;20434;-59
2021/10/30 04:36:25;;;;;;;19.70;10.20;;;1.80;99.90;;;;;;4965855;28;20442;-59
2021/10/30 04:38:52;;;;;;;30.10;10.07;;;1.80;99.90;;;;;;4964568;28;20512;-59
2021/10/30 04:41:18;;;;;;;25.57;11.00;;;1.80;99.90;;;;;;4977928;28;20427;-59
2021/10/30 04:43:45;;;;;;;108.17;13.67;;;1.80;99.90;;;;;;4964242;28;20441;-60
2021/10/30 04:46:13;;;;;;;33.43;10.57;;;1.80;99.90;;;;;;4963429;28;20418;-60
2021/10/30 04:48:39;;;;;;;43.67;10.60;;;1.70;99.90;;;;;;4965550;28;20447;-59
2021/10/30 04:51:06;;;;;;;61.90;11.40;;;1.70;99.90;;;;;;4959327;28;20429;-59
2021/10/30 04:53:38;;;;;;;61.83;11.50;;;1.70;99.90;;;;;;4963232;28;20234;-60
2021/10/30 04:56:06;;;;;;;36.60;11.03;;;1.70;99.90;;;;;;4961849;28;20422;-59
2021/10/30 04:58:33;;;;;;;55.17;10.80;;;1.70;99.90;;;;;;4977532;28;20554;-59
2021/10/30 05:01:00;;;;;;;56.00;11.63;;;1.70;99.90;;;;;;4969739;28;20426;-59
2021/10/30 05:03:26;;;;;;;39.67;9.77;;;1.70;99.90;;;;;;4967360;28;20479;-59
2021/10/30 05:05:52;;;;;;;41.73;10.33;;;1.60;99.90;;;;;;4967527;28;20790;-59
2021/10/30 05:08:18;;;;;;;51.13;11.60;;;1.60;99.90;;;;;;4965298;28;20521;-60
2021/10/30 05:10:43;;;;;;;89.07;11.70;;;1.60;99.90;;;;;;4983709;28;20421;-60
2021/10/30 05:13:10;;;;;;;44.63;11.00;;;1.60;99.90;;;;;;4964955;28;20181;-60
2021/10/30 05:15:35;;;;;;;23.67;10.57;;;1.50;99.90;;;;;;4965600;28;20415;-59
2021/10/30 05:18:01;;;;;;;58.87;11.97;;;1.50;99.90;;;;;;4966247;28;20455;-59
2021/10/30 05:20:27;;;;;;;52.20;11.67;;;1.50;99.90;;;;;;4968553;28;20207;-59
2021/10/30 05:22:53;;;;;;;51.73;10.13;;;1.50;99.90;;;;;;4963934;28;20635;-60
2021/10/30 05:25:19;;;;;;;39.60;11.80;;;1.50;99.90;;;;;;4964975;28;20428;-58
2021/10/30 05:27:44;;;;;;;50.43;11.27;;;1.40;99.90;;;;;;4966198;28;20209;-59
2021/10/30 05:30:10;;;;;;;87.07;12.77;;;1.50;99.90;;;;;;4967281;28;20210;-59
2021/10/30 05:32:35;;;;;;;42.83;11.30;;;1.40;99.90;;;;;;4966447;28;20192;-58
2021/10/30 05:35:02;;;;;;;34.60;9.57;;;1.40;99.90;;;;;;4966148;28;20409;-59
2021/10/30 05:37:28;;;;;;;32.43;11.43;;;1.40;99.90;;;;;;4967574;28;20187;-59
2021/10/30 05:39:53;;;;;;;32.33;8.50;;;1.40;99.90;;;;;;4963240;28;20464;-59
2021/10/30 05:42:19;;;;;;;39.70;11.20;;;1.40;99.90;;;;;;4966351;28;20189;-59
2021/10/30 05:44:45;;;;;;;14.83;8.87;;;1.50;99.90;;;;;;4963747;28;20209;-60
2021/10/30 05:47:11;;;;;;;25.90;8.90;;;1.50;99.90;;;;;;4965209;28;20259;-59
2021/10/30 05:49:40;;;;;;;40.43;9.10;;;1.50;99.90;;;;;;4963677;28;21271;-60
2021/10/30 05:52:07;;;;;;;62.20;10.80;;;1.50;99.90;;;;;;4969583;28;20438;-59
2021/10/30 05:54:33;;;;;;;62.67;10.27;;;1.50;99.90;;;;;;4965813;28;20419;-59
2021/10/30 05:56:59;;;;;;;54.10;10.70;;;1.50;99.90;;;;;;4964904;28;20431;-59
2021/10/30 05:59:28;;;;;;;53.13;9.77;;;1.40;99.90;;;;;;4970804;28;20527;-61
2021/10/30 06:01:54;;;;;;;21.33;9.00;;;1.40;99.90;;;;;;4965158;28;20435;-59
2021/10/30 06:04:20;;;;;;;40.70;10.10;;;1.40;99.90;;;;;;4968021;28;20897;-60
2021/10/30 06:06:46;;;;;;;33.27;9.77;;;1.40;99.90;;;;;;4970257;28;20451;-59
2021/10/30 06:09:12;;;;;;;18.63;9.90;;;1.40;99.90;;;;;;4964914;28;20987;-60
2021/10/30 06:11:38;;;;;;;21.53;9.23;;;1.40;99.90;;;;;;4967412;28;20413;-59
2021/10/30 06:14:06;;;;;;;30.90;10.20;;;1.40;99.90;;;;;;4963187;28;21177;-60
2021/10/30 06:16:33;;;;;;;43.43;12.33;;;1.40;99.90;;;;;;4964925;28;20428;-59
2021/10/30 06:18:59;;;;;;;30.00;8.40;;;1.40;99.90;;;;;;4966061;28;20515;-60
2021/10/30 06:21:27;;;;;;;39.27;9.73;;;1.40;99.90;;;;;;4968526;28;20946;-60
2021/10/30 06:23:54;;;;;;;47.00;10.07;;;1.40;99.90;;;;;;4967863;28;20186;-60
2021/10/30 06:26:20;;;;;;;30.13;8.87;;;1.40;99.90;;;;;;4965665;28;20456;-60
2021/10/30 06:28:46;;;;;;;20.27;8.63;;;1.30;99.90;;;;;;4967891;28;20977;-60
2021/10/30 06:31:12;;;;;;;40.33;10.03;;;1.40;99.90;;;;;;4967503;28;20794;-60
2021/10/30 06:33:38;;;;;;;26.17;9.00;;;1.40;99.90;;;;;;4963575;28;20465;-60
2021/10/30 06:36:04;;;;;;;27.17;9.03;;;1.40;99.90;;;;;;4963778;28;20538;-60
2021/10/30 06:38:29;;;;;;;46.50;9.70;;;1.40;99.90;;;;;;4966659;28;20262;-60
2021/10/30 06:40:57;;;;;;;46.10;10.90;;;1.30;99.90;;;;;;4965045;28;20934;-60
2021/10/30 06:43:23;;;;;;;34.80;10.07;;;1.30;99.90;;;;;;4967536;28;20678;-60
2021/10/30 06:45:48;;;;;;;48.00;9.13;;;1.40;99.90;;;;;;4964532;28;20428;-59
2021/10/30 06:48:14;;;;;;;46.40;10.10;;;1.40;99.90;;;;;;4963794;28;20654;-60
2021/10/30 06:50:40;;;;;;;37.00;9.93;;;1.40;99.90;;;;;;4963151;28;20328;-60
2021/10/30 06:53:05;;;;;;;26.07;10.20;;;1.40;99.90;;;;;;4961784;28;20742;-58
2021/10/30 06:55:31;;;;;;;14.20;9.70;;;1.40;99.90;;;;;;4963399;28;20674;-56
2021/10/30 06:57:57;;;;;;;45.00;9.93;;;1.50;99.90;;;;;;4961046;28;20323;-59
2021/10/30 07:00:23;;;;;;;35.90;8.80;;;1.50;99.90;;;;;;4959570;28;20200;-60
2021/10/30 07:02:52;;;;;;;31.77;9.60;;;1.70;99.90;;;;;;4965086;28;20226;-60
2021/10/30 07:05:17;;;;;;;41.63;9.93;;;1.70;99.90;;;;;;4960984;28;20529;-60
2021/10/30 07:07:43;;;;;;;42.20;10.23;;;1.80;99.90;;;;;;4959914;28;20955;-60
2021/10/30 07:10:09;;;;;;;30.07;9.80;;;1.90;99.90;;;;;;4961886;28;20211;-61
2021/10/30 07:12:37;;;;;;;18.60;9.07;;;1.90;99.90;;;;;;4959107;28;20189;-61
2021/10/30 07:15:04;;;;;;;21.07;10.17;;;2.00;99.90;;;;;;4965637;28;20174;-62
2021/10/30 07:17:30;;;;;;;23.07;8.80;;;2.00;99.90;;;;;;4965736;28;20445;-60
2021/10/30 07:19:56;;;;;;;23.07;9.20;;;2.00;99.90;;;;;;4964977;28;20990;-61
2021/10/30 07:22:21;;;;;;;20.90;8.57;;;2.00;99.90;;;;;;4963814;28;20449;-61
2021/10/30 07:24:47;;;;;;;18.03;9.10;;;2.10;99.90;;;;;;4965382;28;20224;-61
2021/10/30 07:27:16;;;;;;;12.57;8.27;;;2.20;99.90;;;;;;4964011;28;20192;-60
2021/10/30 07:29:44;;;;;;;14.17;8.60;;;2.20;99.90;;;;;;4965730;28;20208;-60
2021/10/30 07:32:10;;;;;;;16.07;10.53;;;2.20;99.90;;;;;;4966355;28;20479;-59
2021/10/30 07:34:36;;;;;;;13.10;8.87;;;2.30;99.90;;;;;;4963412;28;20806;-59
2021/10/30 07:37:01;;;;;;;13.53;9.50;;;2.30;99.90;;;;;;4961003;28;20436;-60
2021/10/30 07:39:27;;;;;;;13.97;9.80;;;2.40;99.90;;;;;;4962532;28;20626;-60
2021/10/30 07:41:52;;;;;;;15.03;9.27;;;2.50;99.90;;;;;;4959499;28;20217;-61
2021/10/30 07:44:18;;;;;;;13.80;10.60;;;2.60;99.90;;;;;;4963010;28;20288;-59
2021/10/30 07:46:44;;;;;;;16.07;10.10;;;2.60;99.90;;;;;;4965106;28;20827;-60
2021/10/30 07:49:10;;;;;;;22.53;11.50;;;2.70;99.90;;;;;;4962191;28;20272;-61
2021/10/30 07:51:35;;;;;;;25.83;12.67;;;2.80;99.90;;;;;;4977530;28;20276;-62
2021/10/30 07:54:01;;;;;;;18.53;11.00;;;2.90;99.90;;;;;;4959358;28;20178;-60
2021/10/30 07:56:28;;;;;;;19.97;12.43;;;3.00;99.90;;;;;;4961644;28;20835;-59
2021/10/30 07:58:53;;;;;;;15.00;9.90;;;3.00;99.90;;;;;;4965019;28;20208;-60
2021/10/30 08:01:19;;;;;;;15.93;10.37;;;3.10;99.90;;;;;;4963107;28;20491;-60
2021/10/30 08:03:45;;;;;;;18.00;10.80;;;3.20;99.90;;;;;;4963606;28;20183;-60
2021/10/30 08:06:11;;;;;;;15.47;9.87;;;3.30;99.90;;;;;;4962837;28;20182;-60
2021/10/30 08:08:36;;;;;;;14.83;10.30;;;3.40;99.90;;;;;;4964489;28;20488;-59
2021/10/30 08:11:02;;;;;;;18.07;11.67;;;3.40;99.90;;;;;;4961073;28;20189;-59
2021/10/30 08:13:28;;;;;;;16.07;10.50;;;3.50;99.90;;;;;;4959716;28;20190;-58
2021/10/30 08:15:55;;;;;;;14.87;9.00;;;3.50;99.90;;;;;;4957000;28;20818;-60
2021/10/30 08:18:20;;;;;;;14.57;8.90;;;3.60;99.90;;;;;;4960425;28;20456;-55
2021/10/30 08:20:46;;;;;;;12.47;8.50;;;3.60;99.90;;;;;;4957801;28;20433;-55
2021/10/30 08:23:12;;;;;;;16.00;9.57;;;3.70;99.90;;;;;;4954473;28;20193;-54
2021/10/30 08:25:38;;;;;;;13.67;9.20;;;3.80;99.90;;;;;;4957745;28;20429;-60
2021/10/30 08:28:04;;;;;;;18.40;9.90;;;3.90;99.90;;;;;;4961777;28;20520;-60
2021/10/30 08:30:30;;;;;;;14.50;10.07;;;3.90;99.90;;;;;;4958268;28;20227;-60
2021/10/30 08:32:56;;;;;;;15.00;10.10;;;4.00;99.90;;;;;;4963625;28;20184;-60
2021/10/30 08:35:21;;;;;;;16.90;10.50;;;4.10;99.90;;;;;;4962359;28;20953;-60
2021/10/30 08:37:47;;;;;;;14.10;9.90;;;4.20;99.90;;;;;;4961639;28;20546;-60
2021/10/30 08:40:14;;;;;;;15.57;10.33;;;4.20;99.90;;;;;;4958703;28;20704;-60
2021/10/30 08:42:50;;;;;;;18.47;11.20;;;4.30;99.90;;;;;;4963270;28;20269;-60
2021/10/30 08:45:18;;;;;;;16.70;10.67;;;4.30;99.90;;;;;;4959530;28;21016;-60
2021/10/30 08:47:46;;;;;;;18.47;11.33;;;4.40;99.90;;;;;;4962408;28;20487;-60
2021/10/30 08:50:14;;;;;;;14.67;9.63;;;4.40;99.90;;;;;;4959852;28;20457;-61
2021/10/30 08:52:40;;;;;;;14.77;10.60;;;4.40;99.90;;;;;;4965171;28;20425;-59
2021/10/30 08:55:08;;;;;;;15.40;9.87;;;4.50;99.90;;;;;;4960390;28;20438;-60
2021/10/30 08:57:37;;;;;;;16.33;9.90;;;4.50;99.90;;;;;;4963352;28;20930;-61
2021/10/30 09:00:23;;;;;;;17.47;9.20;;;4.50;99.90;;;;;;4962180;28;20457;-60
2021/10/30 09:03:02;;;;;;;15.07;9.67;;;4.50;99.90;;;;;;4964457;28;20424;-60
2021/10/30 09:05:30;;;;;;;14.20;9.17;;;4.50;99.90;;;;;;4962716;28;20417;-60
2021/10/30 09:07:58;;;;;;;13.00;8.47;;;4.50;99.90;;;;;;4963027;28;20797;-60
2021/10/30 09:10:25;;;;;;;14.53;9.10;;;4.50;99.90;;;;;;4963798;28;20473;-60
2021/10/30 09:13:09;;;;;;;14.80;9.47;;;4.60;99.90;;;;;;4962224;28;20614;-59
2021/10/30 09:15:49;;;;;;;14.57;9.30;;;4.60;99.90;;;;;;4961440;28;20449;-60
2021/10/30 09:18:32;;;;;;;15.33;9.20;;;4.70;99.90;;;;;;4975490;28;20862;-60
2021/10/30 09:21:15;;;;;;;15.47;10.00;;;4.70;99.90;;;;;;4963898;28;20976;-60
2021/10/30 09:23:47;;;;;;;19.53;10.43;;;4.70;99.90;;;;;;4962569;28;20638;-60
2021/10/30 09:26:20;;;;;;;16.90;9.83;;;4.80;99.90;;;;;;4959473;28;20425;-60
2021/10/30 09:28:53;;;;;;;18.17;11.00;;;4.80;99.90;;;;;;4962882;28;20468;-60
2021/10/30 09:31:23;;;;;;;16.83;10.43;;;4.80;99.90;;;;;;4961222;28;20425;-60
2021/10/30 09:34:01;;;;;;;21.50;11.60;;;4.80;99.90;;;;;;4966681;28;20494;-60
2021/10/30 09:36:39;;;;;;;20.77;11.90;;;4.80;99.90;;;;;;4962380;28;20785;-60
2021/10/30 09:39:10;;;;;;;17.10;12.47;;;4.80;99.90;;;;;;4962783;28;20480;-60
2021/10/30 09:41:42;;;;;;;22.07;12.47;;;4.80;99.90;;;;;;4975560;28;20470;-60
2021/10/30 09:44:08;;;;;;;22.10;12.80;;;4.90;99.90;;;;;;4962909;28;20430;-61
2021/10/30 09:46:38;;;;;;;25.00;12.10;;;4.90;99.90;;;;;;4966040;28;20449;-59
2021/10/30 09:49:21;;;;;;;18.57;11.77;;;4.90;99.90;;;;;;4965465;28;20924;-60
2021/10/30 09:51:53;;;;;;;16.90;11.63;;;4.90;99.90;;;;;;4966416;28;20422;-61
2021/10/30 09:54:39;;;;;;;21.37;12.13;;;4.90;99.90;;;;;;4965735;28;20448;-61
2021/10/30 09:57:24;;;;;;;22.27;11.67;;;5.00;99.90;;;;;;4961121;28;20443;-60
2021/10/30 09:59:52;;;;;;;18.97;11.00;;;5.00;99.90;;;;;;4963809;28;20469;-60
2021/10/30 10:02:21;;;;;;;22.13;11.80;;;5.00;99.90;;;;;;4959849;28;20985;-60
2021/10/30 10:04:47;;;;;;;16.97;11.67;;;5.10;99.90;;;;;;4965369;28;20435;-59
2021/10/30 10:07:15;;;;;;;19.83;10.83;;;5.10;99.90;;;;;;4965096;28;20781;-60
2021/10/30 10:09:40;;;;;;;19.10;11.13;;;5.10;99.90;;;;;;4965987;28;20490;-59
2021/10/30 10:12:12;;;;;;;15.30;10.73;;;5.20;99.90;;;;;;4982092;28;20423;-61
2021/10/30 10:14:40;;;;;;;13.30;9.53;;;5.20;99.90;;;;;;4960819;28;20260;-60
2021/10/30 10:17:06;;;;;;;18.70;10.80;;;5.30;99.90;;;;;;4964902;28;21055;-60
2021/10/30 10:19:31;;;;;;;18.43;10.97;;;5.30;99.90;;;;;;4964587;28;20445;-60
2021/10/30 10:21:58;;;;;;;19.23;11.27;;;5.40;99.90;;;;;;4965216;28;20192;-60
2021/10/30 10:24:30;;;;;;;19.33;11.20;;;5.40;99.90;;;;;;4964038;28;20193;-60
2021/10/30 10:26:57;;;;;;;17.73;10.83;;;5.40;99.90;;;;;;4966495;28;20421;-60
2021/10/30 10:29:33;;;;;;;17.20;10.80;;;5.40;99.90;;;;;;4965123;28;20845;-60
2021/10/30 10:32:05;;;;;;;21.57;12.30;;;5.40;99.90;;;;;;4966263;28;20507;-60
2021/10/30 10:34:35;;;;;;;16.47;11.47;;;5.50;99.90;;;;;;4963746;28;20426;-60
2021/10/30 10:37:24;;;;;;;17.33;11.40;;;5.50;99.90;;;;;;4972132;28;20664;-60
2021/10/30 10:39:56;;;;;;;19.20;10.43;;;5.50;99.90;;;;;;4955324;28;20469;-58
2021/10/30 10:42:34;;;;;;;23.83;12.30;;;5.60;99.90;;;;;;4958160;28;20827;-58
2021/10/30 10:45:09;;;;;;;26.20;15.63;;;5.60;99.90;;;;;;4958408;28;20426;-59
2021/10/30 10:47:35;;;;;;;21.40;13.70;;;5.60;99.90;;;;;;4970225;28;20966;-56
2021/10/30 10:50:20;;;;;;;21.07;12.53;;;5.70;99.90;;;;;;4960815;28;20465;-60
2021/10/30 10:53:05;;;;;;;25.47;14.30;;;5.70;99.90;;;;;;4978118;28;20326;-60
2021/10/30 10:55:34;;;;;;;27.17;16.90;;;5.70;99.90;;;;;;4963152;28;20785;-56
2021/10/30 10:58:05;;;;;;;26.37;14.23;;;5.80;99.90;;;;;;4962018;28;20436;-56
2021/10/30 11:00:32;;;;;;;33.80;14.77;;;5.80;99.90;;;;;;4964678;28;20437;-56
2021/10/30 11:02:59;;;;;;;25.80;14.23;;;5.80;99.90;;;;;;4960986;28;20607;-56
2021/10/30 11:05:35;;;;;;;25.87;16.13;;;5.90;99.90;;;;;;4962420;28;21012;-56
2021/10/30 11:08:09;;;;;;;24.23;13.97;;;5.90;99.90;;;;;;4953438;28;20807;-60
2021/10/30 11:10:39;;;;;;;22.47;13.90;;;5.90;99.90;;;;;;4974750;28;20465;-60
2021/10/30 11:13:09;;;;;;;26.57;15.07;;;5.90;99.90;;;;;;4961024;28;20963;-60
2021/10/30 11:15:41;;;;;;;23.50;12.80;;;6.00;99.90;;;;;;4968090;28;20433;-61
2021/10/30 11:18:12;;;;;;;22.57;14.10;;;5.90;99.90;;;;;;4960682;28;20501;-60
2021/10/30 11:20:40;;;;;;;26.93;14.13;;;6.00;99.90;;;;;;4960042;28;20429;-61
2021/10/30 11:23:33;;;;;;;31.00;15.63;;;6.00;99.90;;;;;;4962416;28;20481;-60
2021/10/30 11:26:32;;;;;;;24.63;13.90;;;6.10;99.90;;;;;;4950630;28;20445;-60
2021/10/30 11:29:04;;;;;;;20.10;12.90;;;6.10;99.90;;;;;;4951240;28;20560;-60
2021/10/30 11:31:30;;;;;;;26.90;13.70;;;6.10;99.90;;;;;;4963017;28;20798;-59
2021/10/30 11:34:10;;;;;;;25.57;14.03;;;6.10;99.90;;;;;;4966239;28;20429;-60
2021/10/30 11:36:41;;;;;;;21.97;14.17;;;6.10;99.90;;;;;;4966821;28;21039;-62
2021/10/30 11:39:10;;;;;;;28.03;14.63;;;6.10;99.90;;;;;;4964283;28;20507;-59
2021/10/30 11:41:37;;;;;;;23.67;13.73;;;6.10;99.90;;;;;;4974924;28;20536;-60
2021/10/30 11:44:08;;;;;;;26.70;14.37;;;6.20;99.90;;;;;;4964880;28;20448;-59
2021/10/30 11:46:48;;;;;;;24.53;15.17;;;6.20;99.90;;;;;;4966854;28;20437;-58
2021/10/30 11:49:29;;;;;;;27.13;15.13;;;6.20;99.90;;;;;;4959807;28;21146;-59
2021/10/30 11:52:09;;;;;;;24.47;14.70;;;6.20;99.90;;;;;;4961282;28;20955;-60
2021/10/30 11:54:36;;;;;;;20.37;12.77;;;6.20;99.90;;;;;;4956037;28;20429;-61
2021/10/30 11:57:12;;;;;;;19.30;13.40;;;6.30;99.90;;;;;;4961060;28;20485;-60
2021/10/30 11:59:44;;;;;;;23.10;12.73;;;6.30;99.90;;;;;;4963081;28;20471;-61
2021/10/30 12:02:16;;;;;;;21.03;11.77;;;6.30;99.90;;;;;;4959550;28;20718;-61
2021/10/30 12:04:42;;;;;;;24.20;14.10;;;6.40;99.90;;;;;;4977906;28;20469;-61
2021/10/30 12:07:11;;;;;;;24.23;13.63;;;6.40;99.90;;;;;;4955762;28;20446;-60
2021/10/30 12:09:39;;;;;;;21.03;13.40;;;6.40;99.90;;;;;;4956472;28;20600;-60
2021/10/30 12:12:06;;;;;;;22.03;13.23;;;6.40;99.90;;;;;;4967995;28;20454;-58
2021/10/30 12:14:42;;;;;;;20.43;12.47;;;6.50;99.90;;;;;;4956155;28;20458;-59
2021/10/30 12:17:14;;;;;;;18.53;11.80;;;6.50;99.90;;;;;;4955370;28;20429;-56
2021/10/30 12:19:44;;;;;;;17.40;11.10;;;6.60;99.90;;;;;;4958148;28;20812;-58
2021/10/30 12:22:17;;;;;;;23.93;13.03;;;6.70;99.90;;;;;;4959258;28;20444;-59
2021/10/30 12:24:44;;;;;;;23.03;14.70;;;6.70;99.90;;;;;;4955873;28;20430;-60
2021/10/30 12:27:10;;;;;;;25.43;14.10;;;6.80;99.90;;;;;;4953807;28;20445;-59
2021/10/30 12:29:45;;;;;;;28.63;14.37;;;6.90;99.90;;;;;;4955607;28;20996;-59
2021/10/30 12:32:13;;;;;;;23.00;13.63;;;6.90;99.90;;;;;;4984321;28;20435;-59
2021/10/30 12:35:01;;;;;;;29.10;14.63;;;6.90;99.90;;;;;;4971872;28;20918;-60
2021/10/30 12:37:32;;;;;;;31.13;16.73;;;7.00;99.90;;;;;;4961579;28;20935;-59
2021/10/30 12:40:07;;;;;;;34.43;16.90;;;7.00;99.90;;;;;;4955908;28;21231;-58
2021/10/30 12:42:34;;;;;;;29.33;15.40;;;7.10;99.90;;;;;;4950917;28;20934;-59